Time;durP1;ratioP1;P1;durP2;ratioP2;P2;SDS_P1;SDS_P2;PMS_P1;PMS_P2;Temp;Humidity;BMP_temperature;BMP_pressure;BME280_temperature;BME280_humidity;BME280_pressure;Samples;Min_cycle;Max_cycle;Signal;HPM_P1;HPM_P2
2022/12/03 00:02:15;;;;;;;114.80;47.13;;;;;;;;;;4864051;29;20121;-89
2022/12/03 00:04:41;;;;;;;96.85;42.80;;;;;;;;;;4864322;29;20068;-89
2022/12/03 00:07:07;;;;;;;83.97;38.42;;;;;;;;;;4864176;29;20493;-89
2022/12/03 00:09:33;;;;;;;102.03;42.15;;;;;;;;;;4864310;29;20041;-89
2022/12/03 00:11:59;;;;;;;91.20;40.40;;;;;;;;;;4863675;29;20033;-87
2022/12/03 00:14:25;;;;;;;85.18;39.40;;;;;;;;;;4864622;29;20029;-88
2022/12/03 00:16:51;;;;;;;78.22;38.08;;;;;;;;;;4864719;29;20025;-89
2022/12/03 00:19:17;;;;;;;120.10;44.60;;;;;;;;;;4864483;29;20037;-89
2022/12/03 00:21:43;;;;;;;138.13;48.60;;;;;;;;;;4875648;29;20037;-87
2022/12/03 00:24:09;;;;;;;85.97;38.95;;;;;;;;;;4874312;29;20041;-88
2022/12/03 00:29:39;;;;;;;155.95;49.30;;;;;;;;;;4897039;23;20072;-89
2022/12/03 00:35:09;;;;;;;128.37;47.03;;;;;;;;;;4897079;23;20132;-90
2022/12/03 00:37:35;;;;;;;93.55;40.30;;;;;;;;;;4863360;29;20620;-89
2022/12/03 00:40:03;;;;;;;87.47;40.13;;;;;;;;;;4864627;29;20056;-89
2022/12/03 00:42:29;;;;;;;118.78;45.58;;;;;;;;;;4866797;29;20025;-88
2022/12/03 00:44:55;;;;;;;118.38;44.90;;;;;;;;;;4866534;29;20055;-88
2022/12/03 00:47:21;;;;;;;91.53;40.00;;;;;;;;;;4866941;29;20117;-89
2022/12/03 00:49:47;;;;;;;117.68;47.88;;;;;;;;;;4866700;29;20147;-89
2022/12/03 00:52:13;;;;;;;105.22;45.35;;;;;;;;;;4866565;29;20040;-90
2022/12/03 00:54:42;;;;;;;96.93;43.67;;;;;;;;;;4874302;29;20060;-88
2022/12/03 00:57:08;;;;;;;98.20;41.97;;;;;;;;;;4872836;29;20403;-88
2022/12/03 00:59:34;;;;;;;136.10;50.00;;;;;;;;;;4866609;29;20513;-89
2022/12/03 01:02:01;;;;;;;129.82;48.53;;;;;;;;;;4866469;29;20032;-89
2022/12/03 01:04:27;;;;;;;114.50;44.28;;;;;;;;;;4866427;29;20040;-88
2022/12/03 01:06:53;;;;;;;88.32;39.55;;;;;;;;;;4866539;29;20017;-89
2022/12/03 01:09:19;;;;;;;107.90;45.42;;;;;;;;;;4866265;29;20132;-88
2022/12/03 01:11:45;;;;;;;115.97;45.20;;;;;;;;;;4866617;29;20373;-87
2022/12/03 01:14:12;;;;;;;106.90;44.00;;;;;;;;;;4866111;29;20029;-88
2022/12/03 01:16:40;;;;;;;105.47;42.85;;;;;;;;;;4866481;29;20487;-87
2022/12/03 01:19:06;;;;;;;135.43;48.05;;;;;;;;;;4866074;29;20085;-87
2022/12/03 01:21:33;;;;;;;126.20;46.97;;;;;;;;;;4866585;29;20116;-87
2022/12/03 01:23:59;;;;;;;105.43;44.22;;;;;;;;;;4866050;29;20120;-88
2022/12/03 01:26:25;;;;;;;102.53;43.72;;;;;;;;;;4866206;29;20037;-89
2022/12/03 01:28:52;;;;;;;91.35;40.08;;;;;;;;;;4866520;29;20683;-89
2022/12/03 01:34:03;;;;;;;145.02;51.67;;;;;;;;;;4882649;29;20039;-89
2022/12/03 01:36:30;;;;;;;116.28;46.28;;;;;;;;;;4866213;29;20029;-88
2022/12/03 01:38:56;;;;;;;109.35;44.33;;;;;;;;;;4865740;29;20044;-89
2022/12/03 01:41:23;;;;;;;109.22;45.45;;;;;;;;;;4865564;29;20067;-89
2022/12/03 01:43:50;;;;;;;104.63;43.53;;;;;;;;;;4865710;29;20041;-88
2022/12/03 01:46:19;;;;;;;129.13;50.05;;;;;;;;;;4865442;29;20082;-88
2022/12/03 01:48:45;;;;;;;89.07;41.25;;;;;;;;;;4865853;29;20029;-89
2022/12/03 01:51:12;;;;;;;107.97;45.97;;;;;;;;;;4865785;29;20093;-89
2022/12/03 01:53:38;;;;;;;101.90;43.92;;;;;;;;;;4865626;29;20029;-89
2022/12/03 01:56:05;;;;;;;94.18;43.53;;;;;;;;;;4865714;29;20266;-88
2022/12/03 01:58:31;;;;;;;96.50;43.17;;;;;;;;;;4882412;29;20033;-87
2022/12/03 02:01:01;;;;;;;92.50;42.50;;;;;;;;;;4865673;29;20053;-89
2022/12/03 02:03:28;;;;;;;108.18;45.45;;;;;;;;;;4882352;29;20386;-88
2022/12/03 02:05:55;;;;;;;83.78;39.60;;;;;;;;;;4865633;29;20029;-89
2022/12/03 02:08:39;;;;;;;92.03;42.03;;;;;;;;;;4865615;29;20043;-88
2022/12/03 02:11:19;;;;;;;114.28;43.58;;;;;;;;;;4865681;29;20035;-89
2022/12/03 02:13:46;;;;;;;107.65;44.50;;;;;;;;;;4865941;29;20037;-89
2022/12/03 02:16:12;;;;;;;104.40;44.45;;;;;;;;;;4865424;29;20021;-88
2022/12/03 02:18:39;;;;;;;102.75;44.72;;;;;;;;;;4865509;29;20072;-90
2022/12/03 02:21:12;;;;;;;112.55;44.42;;;;;;;;;;4865487;29;20025;-88
2022/12/03 02:23:41;;;;;;;92.15;41.83;;;;;;;;;;4871246;29;20040;-88
2022/12/03 02:26:07;;;;;;;107.60;44.47;;;;;;;;;;4883364;29;20040;-87
2022/12/03 02:28:34;;;;;;;98.28;42.10;;;;;;;;;;4866468;29;20057;-89
2022/12/03 02:31:00;;;;;;;112.15;44.40;;;;;;;;;;4865597;29;20094;-89
2022/12/03 02:33:27;;;;;;;135.07;50.42;;;;;;;;;;4864943;29;20033;-90
2022/12/03 02:35:53;;;;;;;101.50;44.55;;;;;;;;;;4864776;29;20139;-89
2022/12/03 02:38:22;;;;;;;150.43;52.25;;;;;;;;;;4865000;29;20089;-88
2022/12/03 02:40:51;;;;;;;110.95;45.42;;;;;;;;;;4864882;29;20045;-88
2022/12/03 02:43:19;;;;;;;125.03;44.97;;;;;;;;;;4864509;29;20049;-91
2022/12/03 02:45:49;;;;;;;102.45;44.13;;;;;;;;;;4864801;29;20479;-90
2022/12/03 02:48:18;;;;;;;106.97;44.03;;;;;;;;;;4864824;29;20029;-89
2022/12/03 02:50:49;;;;;;;100.07;42.97;;;;;;;;;;4864842;29;20045;-89
2022/12/03 02:53:22;;;;;;;105.63;44.25;;;;;;;;;;4864699;29;20251;-87
2022/12/03 02:55:50;;;;;;;90.57;40.78;;;;;;;;;;4881140;29;20037;-90
2022/12/03 02:58:16;;;;;;;107.07;43.03;;;;;;;;;;4864715;29;20044;-87
2022/12/03 03:00:43;;;;;;;82.13;39.33;;;;;;;;;;4861499;29;20025;-89
2022/12/03 03:03:09;;;;;;;92.80;41.83;;;;;;;;;;4860560;29;20032;-89
2022/12/03 03:05:37;;;;;;;107.75;44.70;;;;;;;;;;4864324;29;20047;-90
2022/12/03 03:11:25;;;;;;;109.72;44.03;;;;;;;;;;4880838;29;20495;-90
2022/12/03 03:19:03;;;;;;;114.25;44.55;;;;;;;;;;5535620;23;20079;-90
2022/12/03 03:21:29;;;;;;;108.30;42.85;;;;;;;;;;4865122;29;20513;-90
2022/12/03 03:23:55;;;;;;;145.82;51.28;;;;;;;;;;4864753;29;20132;-89
2022/12/03 03:26:21;;;;;;;103.10;43.03;;;;;;;;;;4864895;29;20033;-89
2022/12/03 03:28:49;;;;;;;112.45;44.70;;;;;;;;;;4864623;29;20024;-90
2022/12/03 03:31:17;;;;;;;100.70;42.45;;;;;;;;;;4864456;29;20116;-89
2022/12/03 03:33:44;;;;;;;112.75;43.35;;;;;;;;;;4864572;29;20029;-91
2022/12/03 03:36:11;;;;;;;120.15;46.08;;;;;;;;;;4864310;29;20494;-89
2022/12/03 03:38:37;;;;;;;97.50;41.15;;;;;;;;;;4864560;29;20025;-90
2022/12/03 03:41:05;;;;;;;94.93;40.20;;;;;;;;;;4864816;29;20036;-91
2022/12/03 03:43:33;;;;;;;100.03;40.88;;;;;;;;;;4863937;29;20493;-90
2022/12/03 03:46:00;;;;;;;147.25;49.25;;;;;;;;;;4863697;29;20056;-91
2022/12/03 03:48:26;;;;;;;98.28;41.13;;;;;;;;;;4863691;29;20029;-89
2022/12/03 03:50:53;;;;;;;91.50;38.78;;;;;;;;;;4863519;29;20036;-90
2022/12/03 03:53:20;;;;;;;97.13;40.92;;;;;;;;;;4863592;29;20493;-90
2022/12/03 03:55:46;;;;;;;87.22;39.60;;;;;;;;;;4863580;29;20403;-90
2022/12/03 03:58:13;;;;;;;87.80;38.70;;;;;;;;;;4865610;29;20029;-90
2022/12/03 04:00:39;;;;;;;99.55;41.05;;;;;;;;;;4864554;29;20322;-90
2022/12/03 04:03:05;;;;;;;98.30;41.75;;;;;;;;;;4866469;29;20058;-90
2022/12/03 04:05:31;;;;;;;135.88;47.88;;;;;;;;;;4866396;29;20041;-89
2022/12/03 04:07:58;;;;;;;113.80;45.15;;;;;;;;;;4864645;29;20032;-90
2022/12/03 04:13:08;;;;;;;114.65;44.03;;;;;;;;;;4880807;29;20036;-93
2022/12/03 04:15:35;;;;;;;120.10;43.90;;;;;;;;;;4863208;29;20033;-90
2022/12/03 04:20:46;;;;;;;112.28;43.47;;;;;;;;;;4880736;29;20056;-88
2022/12/03 04:23:12;;;;;;;126.78;43.97;;;;;;;;;;4864998;29;20033;-89
2022/12/03 04:36:38;;;;;;;117.20;41.33;;;;;;;;;;4880286;29;20060;-90
2022/12/03 04:39:04;;;;;;;102.80;40.13;;;;;;;;;;4863445;29;20133;-89
2022/12/03 04:41:31;;;;;;;132.02;46.15;;;;;;;;;;4863424;29;20025;-92
2022/12/03 04:46:41;;;;;;;103.20;40.38;;;;;;;;;;4880528;29;20042;-90
2022/12/03 04:49:09;;;;;;;119.85;44.22;;;;;;;;;;4863457;29;20093;-90
2022/12/03 04:51:35;;;;;;;95.22;40.15;;;;;;;;;;4863688;29;20060;-90
2022/12/03 04:54:02;;;;;;;99.97;41.00;;;;;;;;;;4863717;29;20124;-91
2022/12/03 04:56:28;;;;;;;92.00;39.17;;;;;;;;;;4880028;29;20108;-91
2022/12/03 04:58:54;;;;;;;149.82;50.22;;;;;;;;;;4863597;29;20037;-91
2022/12/03 05:01:21;;;;;;;102.38;43.50;;;;;;;;;;4863460;29;20041;-90
2022/12/03 05:03:47;;;;;;;130.02;46.05;;;;;;;;;;4863016;29;20125;-91
2022/12/03 05:06:13;;;;;;;122.35;43.33;;;;;;;;;;4863367;29;20127;-91
2022/12/03 05:08:39;;;;;;;135.90;46.15;;;;;;;;;;4863775;29;20044;-91
2022/12/03 05:11:05;;;;;;;122.60;44.03;;;;;;;;;;4863819;29;20025;-91
2022/12/03 05:13:31;;;;;;;98.82;41.15;;;;;;;;;;4863177;29;20119;-90
2022/12/03 05:15:57;;;;;;;121.00;44.15;;;;;;;;;;4863553;29;20080;-91
2022/12/03 05:18:23;;;;;;;81.47;38.55;;;;;;;;;;4863180;29;20515;-92
2022/12/03 05:20:50;;;;;;;108.82;42.90;;;;;;;;;;4863293;29;20061;-91
2022/12/03 05:23:16;;;;;;;83.55;37.83;;;;;;;;;;4863218;29;20040;-90
2022/12/03 05:25:42;;;;;;;89.13;38.92;;;;;;;;;;4864313;29;20474;-90
2022/12/03 05:28:08;;;;;;;88.78;38.25;;;;;;;;;;4866747;29;20028;-93
2022/12/03 05:30:34;;;;;;;93.20;40.83;;;;;;;;;;4866820;29;20053;-90
2022/12/03 05:33:01;;;;;;;96.13;41.33;;;;;;;;;;4866691;29;20029;-89
2022/12/03 05:35:27;;;;;;;117.00;42.95;;;;;;;;;;4866363;29;20037;-91
2022/12/03 05:37:53;;;;;;;121.72;44.90;;;;;;;;;;4866486;29;20048;-91
2022/12/03 05:40:20;;;;;;;114.90;44.78;;;;;;;;;;4866347;29;20047;-90
2022/12/03 05:43:00;;;;;;;109.95;44.25;;;;;;;;;;4866227;29;20036;-91
2022/12/03 05:45:36;;;;;;;109.70;42.53;;;;;;;;;;4866432;29;20044;-91
2022/12/03 05:48:03;;;;;;;97.88;41.28;;;;;;;;;;4866635;29;20120;-91
2022/12/03 05:53:32;;;;;;;95.13;39.30;;;;;;;;;;4882898;29;20028;-89
2022/12/03 05:59:02;;;;;;;79.22;35.88;;;;;;;;;;4882563;29;20040;-90
2022/12/03 06:01:28;;;;;;;84.90;36.90;;;;;;;;;;4866429;29;20248;-90
2022/12/03 06:03:55;;;;;;;81.18;36.17;;;;;;;;;;4866296;29;20037;-90
2022/12/03 06:06:21;;;;;;;83.65;38.47;;;;;;;;;;4866579;29;20100;-90
2022/12/03 06:08:47;;;;;;;74.18;35.42;;;;;;;;;;4866566;29;20029;-91
2022/12/03 06:11:13;;;;;;;73.93;35.58;;;;;;;;;;4866047;29;20055;-90
2022/12/03 06:13:39;;;;;;;116.13;43.25;;;;;;;;;;4866080;29;20053;-90
2022/12/03 06:16:05;;;;;;;83.22;37.20;;;;;;;;;;4866291;29;20029;-91
2022/12/03 06:18:31;;;;;;;66.72;33.72;;;;;;;;;;4866232;29;20053;-90
2022/12/03 06:20:57;;;;;;;78.80;34.75;;;;;;;;;;4866283;29;20106;-91
2022/12/03 06:26:28;;;;;;;76.28;31.70;;;;;;;;;;5083574;23;20121;-89
2022/12/03 06:28:57;;;;;;;96.78;38.80;;;;;;;;;;4881144;29;20044;-88
2022/12/03 06:31:23;;;;;;;88.43;36.28;;;;;;;;;;4880675;29;20033;-86
2022/12/03 06:33:49;;;;;;;94.47;38.13;;;;;;;;;;4866884;29;20120;-90
2022/12/03 06:36:15;;;;;;;68.18;32.65;;;;;;;;;;4863548;29;20033;-87
2022/12/03 06:38:41;;;;;;;76.60;35.17;;;;;;;;;;4861122;29;20170;-88
2022/12/03 06:41:07;;;;;;;89.20;38.55;;;;;;;;;;4864011;29;20460;-89
2022/12/03 06:43:51;;;;;;;92.45;37.70;;;;;;;;;;4865072;29;20083;-88
2022/12/03 06:46:17;;;;;;;74.55;34.40;;;;;;;;;;4864910;29;20051;-89
2022/12/03 06:48:43;;;;;;;96.45;39.08;;;;;;;;;;4864926;29;20479;-89
2022/12/03 06:51:09;;;;;;;71.90;33.10;;;;;;;;;;4864699;29;20108;-87
2022/12/03 06:53:35;;;;;;;98.43;37.75;;;;;;;;;;4865197;29;20028;-89
2022/12/03 06:56:02;;;;;;;101.07;37.63;;;;;;;;;;4865376;29;20034;-89
2022/12/03 06:58:28;;;;;;;59.95;31.40;;;;;;;;;;4864955;29;20040;-89
2022/12/03 07:00:54;;;;;;;71.90;33.55;;;;;;;;;;4864955;29;20285;-90
2022/12/03 07:03:20;;;;;;;85.80;36.83;;;;;;;;;;4864718;29;20025;-90
2022/12/03 07:05:46;;;;;;;73.32;33.10;;;;;;;;;;4864537;29;20085;-89
2022/12/03 07:08:12;;;;;;;87.85;35.55;;;;;;;;;;4864917;29;20025;-87
2022/12/03 07:10:38;;;;;;;88.28;35.67;;;;;;;;;;4868151;29;20033;-87
2022/12/03 07:13:04;;;;;;;96.60;37.17;;;;;;;;;;4866474;29;20029;-89
2022/12/03 07:15:30;;;;;;;85.15;34.63;;;;;;;;;;4865007;29;20028;-91
2022/12/03 07:17:56;;;;;;;78.22;33.30;;;;;;;;;;4864531;29;20093;-89
2022/12/03 07:20:22;;;;;;;111.38;40.55;;;;;;;;;;4865280;29;20097;-91
2022/12/03 07:22:49;;;;;;;92.80;36.25;;;;;;;;;;4881241;29;20381;-89
2022/12/03 07:25:15;;;;;;;88.00;35.05;;;;;;;;;;4864692;29;20096;-89
2022/12/03 07:27:41;;;;;;;74.38;34.35;;;;;;;;;;4864203;29;20096;-90
2022/12/03 07:30:08;;;;;;;88.03;35.58;;;;;;;;;;4864459;29;20117;-91
2022/12/03 07:32:34;;;;;;;70.75;32.50;;;;;;;;;;4863848;29;20033;-89
2022/12/03 07:35:00;;;;;;;69.20;33.28;;;;;;;;;;4881236;23;20025;-91
2022/12/03 07:37:26;;;;;;;106.45;38.35;;;;;;;;;;4866483;29;20132;-89
2022/12/03 07:39:53;;;;;;;99.30;38.33;;;;;;;;;;4876254;29;20028;-89
2022/12/03 07:42:19;;;;;;;101.30;39.08;;;;;;;;;;4872687;29;20743;-89
2022/12/03 07:44:45;;;;;;;75.47;35.40;;;;;;;;;;4875520;29;20068;-92
2022/12/03 07:47:11;;;;;;;112.30;43.22;;;;;;;;;;4872274;29;20029;-92
2022/12/03 07:49:38;;;;;;;76.97;34.80;;;;;;;;;;4865229;29;20101;-92
2022/12/03 07:52:17;;;;;;;87.25;37.67;;;;;;;;;;4872602;29;20033;-93
2022/12/03 07:54:43;;;;;;;92.28;37.55;;;;;;;;;;4879889;29;20498;-89
2022/12/03 07:57:09;;;;;;;100.85;38.72;;;;;;;;;;4882373;29;20025;-93
2022/12/03 07:59:35;;;;;;;71.30;31.88;;;;;;;;;;4873147;29;20029;-93
2022/12/03 08:02:01;;;;;;;120.53;41.00;;;;;;;;;;4877335;29;20462;-91
2022/12/03 08:04:28;;;;;;;85.63;37.50;;;;;;;;;;4874967;29;20033;-89
2022/12/03 08:06:54;;;;;;;79.90;36.20;;;;;;;;;;4864313;29;20033;-89
2022/12/03 08:09:20;;;;;;;118.30;41.33;;;;;;;;;;4864578;29;20424;-91
2022/12/03 08:11:47;;;;;;;116.30;42.45;;;;;;;;;;4864376;29;20116;-88
2022/12/03 08:14:14;;;;;;;112.15;39.13;;;;;;;;;;4879813;29;20028;-90
2022/12/03 08:16:41;;;;;;;86.97;35.58;;;;;;;;;;4875684;29;20072;-88
2022/12/03 08:19:12;;;;;;;86.47;36.17;;;;;;;;;;4876915;29;20033;-88
2022/12/03 08:21:38;;;;;;;94.78;38.72;;;;;;;;;;4873414;29;20029;-89
2022/12/03 08:24:15;;;;;;;95.03;38.47;;;;;;;;;;4878123;29;20459;-89
2022/12/03 08:26:43;;;;;;;105.15;39.70;;;;;;;;;;4863163;29;20033;-90
2022/12/03 08:29:11;;;;;;;130.07;43.10;;;;;;;;;;4863245;29;20029;-88
2022/12/03 08:31:37;;;;;;;99.65;37.45;;;;;;;;;;4868223;29;20064;-91
2022/12/03 08:36:39;;;;;;;98.05;39.15;;;;;;;;;;5332512;23;20107;-92
2022/12/03 08:44:25;;;;;;;93.90;35.30;;;;;;;;;;4898837;29;20050;-88
2022/12/03 08:47:14;;;;;;;93.07;35.85;;;;;;;;;;4882161;29;20028;-90
2022/12/03 08:49:40;;;;;;;120.22;42.35;;;;;;;;;;4881948;29;20052;-89
2022/12/03 08:52:11;;;;;;;99.22;39.78;;;;;;;;;;4886399;29;20028;-90
2022/12/03 08:54:37;;;;;;;102.28;40.40;;;;;;;;;;4978136;23;20033;-91
2022/12/03 09:02:35;;;;;;;112.07;39.80;;;;;;;;;;4899988;29;20474;-92
2022/12/03 09:05:10;;;;;;;115.80;38.85;;;;;;;;;;4893936;29;20040;-92
2022/12/03 09:07:36;;;;;;;107.63;38.15;;;;;;;;;;4892801;29;20486;-94
2022/12/03 09:10:02;;;;;;;97.82;36.30;;;;;;;;;;4900996;29;20068;-89
2022/12/03 09:12:28;;;;;;;96.45;36.38;;;;;;;;;;4900944;29;20052;-91
2022/12/03 09:14:54;;;;;;;100.40;36.28;;;;;;;;;;4901106;29;20033;-90
2022/12/03 09:17:20;;;;;;;90.53;36.17;;;;;;;;;;4900729;29;20474;-93
2022/12/03 09:19:47;;;;;;;118.95;38.88;;;;;;;;;;4900977;29;20040;-93
2022/12/03 09:22:14;;;;;;;120.70;41.05;;;;;;;;;;4890641;29;20043;-91
2022/12/03 09:24:40;;;;;;;111.40;38.92;;;;;;;;;;4885064;29;20654;-93
2022/12/03 09:27:06;;;;;;;103.63;39.20;;;;;;;;;;4885681;29;20028;-92
2022/12/03 09:29:32;;;;;;;85.25;34.67;;;;;;;;;;4885464;29;20057;-91
2022/12/03 09:31:58;;;;;;;123.22;40.75;;;;;;;;;;4885215;29;20059;-93
2022/12/03 09:34:25;;;;;;;116.90;40.90;;;;;;;;;;4886045;29;20076;-91
2022/12/03 09:36:51;;;;;;;100.60;39.90;;;;;;;;;;4885526;29;20029;-89
2022/12/03 09:39:17;;;;;;;126.60;42.10;;;;;;;;;;4885046;29;20025;-90
2022/12/03 09:41:43;;;;;;;102.30;39.28;;;;;;;;;;4885362;29;20039;-91
2022/12/03 09:44:11;;;;;;;125.07;43.67;;;;;;;;;;4884962;29;20036;-91
2022/12/03 09:46:38;;;;;;;108.25;40.70;;;;;;;;;;4884914;29;20478;-91
2022/12/03 09:49:05;;;;;;;114.18;41.88;;;;;;;;;;4885382;29;20067;-90
2022/12/03 09:51:32;;;;;;;108.10;40.03;;;;;;;;;;4885058;29;20025;-91
2022/12/03 09:53:59;;;;;;;122.68;42.55;;;;;;;;;;4884744;29;20406;-91
2022/12/03 09:56:26;;;;;;;116.30;40.97;;;;;;;;;;4884733;29;20031;-91
2022/12/03 09:58:52;;;;;;;112.15;40.92;;;;;;;;;;4901369;29;20036;-90
2022/12/03 10:01:18;;;;;;;111.30;40.83;;;;;;;;;;4884670;29;20052;-92
2022/12/03 10:03:46;;;;;;;112.85;41.15;;;;;;;;;;4885424;29;20032;-89
2022/12/03 10:06:15;;;;;;;109.93;42.50;;;;;;;;;;4886597;29;20029;-92
2022/12/03 10:08:41;;;;;;;134.48;45.45;;;;;;;;;;4888227;29;20043;-92
2022/12/03 10:11:07;;;;;;;95.32;39.97;;;;;;;;;;4888737;29;20035;-91
2022/12/03 10:13:36;;;;;;;98.93;40.15;;;;;;;;;;4887564;29;20040;-89
2022/12/03 10:16:02;;;;;;;106.30;42.25;;;;;;;;;;4884895;29;20088;-91
2022/12/03 10:18:30;;;;;;;100.72;41.33;;;;;;;;;;4886079;29;20119;-91
2022/12/03 10:20:56;;;;;;;101.15;41.42;;;;;;;;;;4885012;29;20039;-92
2022/12/03 10:23:24;;;;;;;94.53;40.20;;;;;;;;;;4887609;29;20060;-89
2022/12/03 10:25:51;;;;;;;91.05;39.95;;;;;;;;;;4896820;29;20047;-91
2022/12/03 10:28:29;;;;;;;78.40;36.75;;;;;;;;;;4891374;29;20495;-94
2022/12/03 10:30:57;;;;;;;89.38;39.08;;;;;;;;;;4903182;29;20157;-93
2022/12/03 10:33:28;;;;;;;88.45;39.00;;;;;;;;;;4884725;29;20036;-93
2022/12/03 10:35:54;;;;;;;94.30;39.88;;;;;;;;;;4885078;29;20777;-91
2022/12/03 10:38:21;;;;;;;82.10;38.05;;;;;;;;;;4884960;29;20089;-90
2022/12/03 10:40:47;;;;;;;77.03;36.92;;;;;;;;;;4885831;29;20482;-94
2022/12/03 10:43:21;;;;;;;85.05;37.92;;;;;;;;;;4884530;29;20119;-94
2022/12/03 10:45:51;;;;;;;90.63;38.95;;;;;;;;;;4885375;29;20041;-90
2022/12/03 10:48:18;;;;;;;78.45;35.83;;;;;;;;;;4887955;29;20055;-93
2022/12/03 10:50:52;;;;;;;88.53;39.80;;;;;;;;;;4888505;29;20053;-94
2022/12/03 10:53:20;;;;;;;93.47;40.72;;;;;;;;;;4885311;29;20127;-91
2022/12/03 10:55:47;;;;;;;86.38;38.33;;;;;;;;;;4885973;29;20025;-93
2022/12/03 10:58:24;;;;;;;86.50;37.15;;;;;;;;;;4884176;29;20029;-93
2022/12/03 11:00:51;;;;;;;79.70;38.75;;;;;;;;;;4889631;29;20092;-95
2022/12/03 11:03:19;;;;;;;82.65;37.72;;;;;;;;;;4885822;29;20032;-92
2022/12/03 11:05:46;;;;;;;97.53;40.15;;;;;;;;;;4886794;29;20608;-93
2022/12/03 11:08:20;;;;;;;82.10;38.78;;;;;;;;;;4886322;29;20192;-94
2022/12/03 11:10:55;;;;;;;82.68;39.05;;;;;;;;;;4886408;29;20024;-91
2022/12/03 11:13:36;;;;;;;89.15;39.38;;;;;;;;;;4890664;29;20032;-93
2022/12/03 11:16:07;;;;;;;81.40;37.58;;;;;;;;;;4886305;29;20050;-93
2022/12/03 11:21:57;;;;;;;92.13;39.65;;;;;;;;;;4900422;29;20032;-91
2022/12/03 11:27:05;;;;;;;87.75;41.08;;;;;;;;;;5502626;23;20072;-91
2022/12/03 11:29:49;;;;;;;82.18;37.60;;;;;;;;;;4870033;29;20076;-93
2022/12/03 11:32:34;;;;;;;75.15;36.63;;;;;;;;;;4865684;29;20037;-95
2022/12/03 11:35:00;;;;;;;81.78;37.10;;;;;;;;;;4867666;29;20036;-94
2022/12/03 11:37:27;;;;;;;75.22;37.28;;;;;;;;;;4867990;29;20088;-92
2022/12/03 11:40:12;;;;;;;72.13;35.28;;;;;;;;;;4865501;29;20029;-94
2022/12/03 11:42:39;;;;;;;66.63;33.80;;;;;;;;;;4863769;29;20033;-91
2022/12/03 11:45:07;;;;;;;67.57;35.00;;;;;;;;;;4863924;29;20175;-92
2022/12/03 11:47:37;;;;;;;74.45;37.25;;;;;;;;;;4865722;29;20041;-93
2022/12/03 11:50:19;;;;;;;68.47;35.22;;;;;;;;;;4864738;29;20038;-89
2022/12/03 11:52:54;;;;;;;66.10;34.60;;;;;;;;;;4864988;29;20036;-90
2022/12/03 11:55:29;;;;;;;70.90;34.85;;;;;;;;;;4864823;29;20072;-96
2022/12/03 11:57:59;;;;;;;75.18;36.72;;;;;;;;;;4865677;29;20033;-90
2022/12/03 12:00:26;;;;;;;64.82;35.00;;;;;;;;;;4870004;29;20053;-90
2022/12/03 12:02:53;;;;;;;68.72;35.20;;;;;;;;;;4878032;29;20025;-93
2022/12/03 12:05:21;;;;;;;65.65;32.63;;;;;;;;;;4865079;29;20037;-89
2022/12/03 12:07:47;;;;;;;56.00;31.48;;;;;;;;;;4864572;29;20029;-93
2022/12/03 12:10:14;;;;;;;70.30;35.13;;;;;;;;;;4865314;29;20048;-90
2022/12/03 12:12:43;;;;;;;70.20;34.17;;;;;;;;;;4863579;29;20069;-89
2022/12/03 12:15:27;;;;;;;63.15;32.50;;;;;;;;;;4864187;29;20032;-90
2022/12/03 12:17:53;;;;;;;63.30;32.28;;;;;;;;;;4865187;29;20029;-91
2022/12/03 12:20:26;;;;;;;62.13;32.42;;;;;;;;;;4863792;29;20112;-90
2022/12/03 12:22:53;;;;;;;73.35;35.55;;;;;;;;;;4865363;29;20029;-92
2022/12/03 12:25:29;;;;;;;65.40;34.05;;;;;;;;;;4865449;29;20399;-92
2022/12/03 12:27:59;;;;;;;70.47;35.38;;;;;;;;;;4865274;29;20444;-92
2022/12/03 12:30:26;;;;;;;58.65;32.30;;;;;;;;;;4866765;29;20061;-92
2022/12/03 12:32:59;;;;;;;66.68;33.97;;;;;;;;;;4866245;29;20494;-87
2022/12/03 12:35:31;;;;;;;62.85;32.05;;;;;;;;;;4867567;29;20025;-89
2022/12/03 12:38:07;;;;;;;65.07;34.75;;;;;;;;;;4872821;29;20127;-93
2022/12/03 12:40:40;;;;;;;75.05;36.05;;;;;;;;;;4874936;29;20040;-89
2022/12/03 12:43:09;;;;;;;69.45;35.58;;;;;;;;;;4880267;29;20025;-94
2022/12/03 12:45:37;;;;;;;81.95;38.10;;;;;;;;;;4881300;29;20037;-90
2022/12/03 12:48:09;;;;;;;73.00;36.15;;;;;;;;;;4870956;29;20030;-93
2022/12/03 12:50:39;;;;;;;78.00;38.50;;;;;;;;;;4881842;29;20045;-94
2022/12/03 12:53:16;;;;;;;70.75;34.70;;;;;;;;;;4881350;29;20032;-93
2022/12/03 12:55:42;;;;;;;75.47;36.95;;;;;;;;;;4866984;29;20043;-90
2022/12/03 12:58:14;;;;;;;75.63;36.58;;;;;;;;;;4867586;29;20037;-91
2022/12/03 13:00:40;;;;;;;73.10;35.60;;;;;;;;;;4871108;29;20044;-90
2022/12/03 13:03:07;;;;;;;82.00;38.72;;;;;;;;;;4878239;29;20036;-92
2022/12/03 13:05:47;;;;;;;78.22;38.75;;;;;;;;;;4871739;29;20044;-93
2022/12/03 13:22:39;;;;;;;68.88;35.03;;;;;;;;;;4944703;23;20059;-90
2022/12/03 13:52:16;;;;;;;74.40;34.70;;;;;;;;;;4902237;23;20052;-90
2022/12/03 13:54:58;;;;;;;72.35;35.85;;;;;;;;;;4870495;29;20475;-91
2022/12/03 13:57:42;;;;;;;78.13;38.15;;;;;;;;;;4854907;29;20128;-90
2022/12/03 14:00:12;;;;;;;63.40;33.95;;;;;;;;;;4892018;23;20041;-93
2022/12/03 14:02:38;;;;;;;86.78;42.55;;;;;;;;;;4888604;29;20131;-93
2022/12/03 14:05:05;;;;;;;58.55;33.53;;;;;;;;;;4903855;29;20123;-91
2022/12/03 14:07:31;;;;;;;67.45;36.00;;;;;;;;;;4886526;29;20029;-91
2022/12/03 14:09:57;;;;;;;82.97;39.67;;;;;;;;;;4887275;29;20036;-92
2022/12/03 14:15:42;;;;;;;70.93;34.45;;;;;;;;;;4911945;29;20084;-88
2022/12/03 14:18:24;;;;;;;79.38;38.80;;;;;;;;;;4896431;29;20044;-92
2022/12/03 14:20:50;;;;;;;71.10;36.83;;;;;;;;;;4885435;29;20040;-93
2022/12/03 14:23:16;;;;;;;65.38;34.10;;;;;;;;;;4903682;29;20029;-88
2022/12/03 14:25:45;;;;;;;68.32;36.03;;;;;;;;;;4884605;29;20512;-91
2022/12/03 14:28:11;;;;;;;70.45;35.72;;;;;;;;;;4886381;29;20029;-88
2022/12/03 14:30:37;;;;;;;76.88;38.33;;;;;;;;;;4885168;29;20045;-93
2022/12/03 14:33:03;;;;;;;68.20;36.35;;;;;;;;;;4884997;29;20028;-89
2022/12/03 14:35:31;;;;;;;61.72;34.13;;;;;;;;;;4885751;29;20036;-96
2022/12/03 14:38:00;;;;;;;69.43;35.55;;;;;;;;;;4886422;29;20076;-94
2022/12/03 14:40:26;;;;;;;64.38;34.35;;;;;;;;;;4884709;29;20081;-93
2022/12/03 14:42:52;;;;;;;74.35;37.47;;;;;;;;;;4884757;29;20028;-95
2022/12/03 14:45:19;;;;;;;62.40;33.50;;;;;;;;;;4888735;29;20037;-92
2022/12/03 14:47:46;;;;;;;61.17;33.47;;;;;;;;;;4894229;29;20025;-92
2022/12/03 14:50:13;;;;;;;60.30;33.38;;;;;;;;;;4877008;29;20035;-93
2022/12/03 14:52:39;;;;;;;57.35;32.10;;;;;;;;;;4904887;29;20028;-89
2022/12/03 14:55:05;;;;;;;76.18;37.35;;;;;;;;;;4896365;29;20032;-91
2022/12/03 14:57:31;;;;;;;59.83;32.03;;;;;;;;;;4882639;29;20067;-89
2022/12/03 15:00:00;;;;;;;55.78;30.88;;;;;;;;;;4882304;29;20056;-91
2022/12/03 15:02:27;;;;;;;59.72;32.85;;;;;;;;;;4883633;29;20031;-90
2022/12/03 15:04:53;;;;;;;69.22;36.17;;;;;;;;;;4898750;29;20501;-92
2022/12/03 15:07:19;;;;;;;57.67;31.70;;;;;;;;;;4882953;29;20052;-92
2022/12/03 15:09:46;;;;;;;60.15;31.60;;;;;;;;;;4886404;29;20048;-92
2022/12/03 15:12:12;;;;;;;59.85;32.70;;;;;;;;;;4884454;29;20032;-93
2022/12/03 15:14:38;;;;;;;64.78;34.47;;;;;;;;;;4885756;29;20032;-91
2022/12/03 15:17:04;;;;;;;52.50;30.33;;;;;;;;;;4902119;29;20072;-93
2022/12/03 15:19:30;;;;;;;56.70;32.60;;;;;;;;;;4902804;29;20096;-92
2022/12/03 15:21:58;;;;;;;57.75;30.20;;;;;;;;;;4918867;29;20035;-91
2022/12/03 15:24:24;;;;;;;61.20;32.38;;;;;;;;;;4902312;29;20040;-92
2022/12/03 15:26:52;;;;;;;60.30;32.70;;;;;;;;;;4903000;29;20047;-94
2022/12/03 15:29:19;;;;;;;57.15;32.42;;;;;;;;;;4919258;29;20493;-91
2022/12/03 15:31:45;;;;;;;55.67;32.63;;;;;;;;;;4902581;29;20036;-92
2022/12/03 15:34:11;;;;;;;49.60;30.15;;;;;;;;;;4903207;29;20031;-93
2022/12/03 15:36:38;;;;;;;52.38;29.80;;;;;;;;;;4904539;29;20028;-93
2022/12/03 15:39:04;;;;;;;51.65;29.25;;;;;;;;;;4893352;29;20032;-91
2022/12/03 15:41:31;;;;;;;55.08;29.23;;;;;;;;;;4883976;29;20036;-92
2022/12/03 15:43:58;;;;;;;54.13;31.80;;;;;;;;;;4884526;29;20036;-92
2022/12/03 15:46:27;;;;;;;54.58;31.23;;;;;;;;;;4884877;29;20081;-93
2022/12/03 15:49:09;;;;;;;47.33;29.73;;;;;;;;;;4867437;29;20084;-94
2022/12/03 15:51:35;;;;;;;52.17;32.13;;;;;;;;;;4885834;29;20028;-93
2022/12/03 15:54:20;;;;;;;55.05;31.77;;;;;;;;;;4890661;29;20047;-95
2022/12/03 15:57:48;;;;;;;56.08;32.35;;;;;;;;;;4891142;29;20126;-94
2022/12/03 15:59:54;;;;;;;57.30;33.45;;;;;;;;;;4898833;29;20199;-94
2022/12/03 16:07:32;;;;;;;56.97;32.15;;;;;;;;;;5894696;23;20441;-95
2022/12/03 16:10:01;;;;;;;57.17;32.42;;;;;;;;;;4885928;29;20096;-93
2022/12/03 16:20:45;;;;;;;60.75;34.08;;;;;;;;;;5248678;23;20038;-94
2022/12/03 16:23:14;;;;;;;54.30;30.95;;;;;;;;;;4870729;29;20037;-96